Time;durP1;ratioP1;P1;durP2;ratioP2;P2;SDS_P1;SDS_P2;PMS_P1;PMS_P2;Temp;Humidity;BMP_temperature;BMP_pressure;BME280_temperature;BME280_humidity;BME280_pressure;Samples;Min_cycle;Max_cycle;Signal;HPM_P1;HPM_P2
2022/12/22 03:32:10;;;;;;;8.77;3.55;;;12.80;84.40;;;;;;21176002;28;20096;-56
2022/12/22 03:52:39;;;;;;;17.77;5.60;;;12.60;84.60;;;;;;21174262;28;19919;-59
2022/12/22 04:02:43;;;;;;;10.05;4.63;;;12.70;84.90;;;;;;21172083;28;20051;-58
2022/12/22 04:12:54;;;;;;;9.68;4.43;;;12.70;84.70;;;;;;21172186;28;20048;-58
2022/12/22 04:22:59;;;;;;;10.65;4.43;;;12.70;85.00;;;;;;21170248;27;20051;-65
2022/12/22 04:33:03;;;;;;;9.93;4.53;;;12.70;85.00;;;;;;21169473;28;20040;-65
2022/12/22 04:43:11;;;;;;;14.88;5.72;;;12.70;84.70;;;;;;21169314;28;20521;-61
2022/12/22 04:53:17;;;;;;;13.50;4.80;;;12.70;84.70;;;;;;21167922;28;20130;-57
2022/12/22 05:03:20;;;;;;;7.85;4.30;;;12.70;84.60;;;;;;21167276;28;20051;-58
2022/12/22 05:13:23;;;;;;;12.15;4.45;;;12.60;84.60;;;;;;21166476;28;20494;-58
2022/12/22 05:23:29;;;;;;;11.43;4.78;;;12.50;84.30;;;;;;21166045;28;20134;-56
2022/12/22 05:33:33;;;;;;;12.30;5.07;;;12.40;84.30;;;;;;21165385;28;20059;-59
2022/12/22 05:43:38;;;;;;;9.02;4.50;;;12.40;84.40;;;;;;21163154;28;20055;-58
2022/12/22 05:53:40;;;;;;;11.50;4.60;;;12.30;84.70;;;;;;21163151;28;20047;-58
2022/12/22 06:03:42;;;;;;;12.93;5.45;;;12.40;84.70;;;;;;21162695;28;20471;-58
2022/12/22 06:13:44;;;;;;;11.00;4.97;;;12.40;84.80;;;;;;21161201;28;20052;-57
2022/12/22 06:23:47;;;;;;;11.52;4.90;;;12.40;84.70;;;;;;21161599;28;20048;-58
2022/12/22 06:33:49;;;;;;;16.27;5.60;;;12.50;84.70;;;;;;21161549;28;20455;-59
2022/12/22 06:43:51;;;;;;;10.40;5.47;;;12.40;84.80;;;;;;21173406;28;20051;-59
2022/12/22 06:53:53;;;;;;;8.93;4.90;;;12.40;85.00;;;;;;21177314;28;20043;-57
2022/12/22 07:03:55;;;;;;;9.20;5.50;;;12.30;85.20;;;;;;21177035;28;20132;-58
2022/12/22 07:13:56;;;;;;;10.70;6.22;;;12.30;85.40;;;;;;21176316;28;20140;-57
2022/12/22 07:23:58;;;;;;;10.15;6.18;;;12.40;85.40;;;;;;21174420;28;20050;-58
2022/12/22 07:34:00;;;;;;;11.40;6.15;;;12.40;85.50;;;;;;21173756;28;20089;-57
2022/12/22 07:44:03;;;;;;;9.52;5.85;;;12.30;85.40;;;;;;21173580;28;20079;-56
2022/12/22 07:54:04;;;;;;;6.18;3.92;;;12.40;85.40;;;;;;21172782;28;20043;-56
2022/12/22 08:04:10;;;;;;;8.77;4.97;;;12.30;85.20;;;;;;21170345;28;20058;-57
2022/12/22 08:14:11;;;;;;;8.68;5.93;;;12.30;85.30;;;;;;21169894;28;20056;-58
2022/12/22 08:24:13;;;;;;;11.73;6.55;;;12.40;85.10;;;;;;21170467;28;20136;-57
2022/12/22 08:34:15;;;;;;;11.75;7.38;;;12.50;84.70;;;;;;21169502;28;20048;-56
2022/12/22 08:44:23;;;;;;;17.27;10.10;;;12.50;84.50;;;;;;21167972;28;20048;-57
2022/12/22 08:54:28;;;;;;;20.40;10.48;;;12.70;84.40;;;;;;21168058;28;20078;-57
2022/12/22 09:04:33;;;;;;;13.50;9.07;;;12.60;84.80;;;;;;21165272;28;20071;-57
2022/12/22 09:14:35;;;;;;;14.87;7.47;;;12.70;84.70;;;;;;21166526;28;20438;-58
2022/12/22 09:24:37;;;;;;;11.13;6.70;;;12.80;84.20;;;;;;21165692;28;20048;-56
2022/12/22 09:34:38;;;;;;;11.00;6.72;;;12.90;83.70;;;;;;21165122;28;20050;-56
2022/12/22 09:44:49;;;;;;;11.15;6.50;;;13.00;83.30;;;;;;21164536;28;20464;-57
2022/12/22 09:54:50;;;;;;;7.85;4.82;;;13.10;83.10;;;;;;21164130;28;20439;-57
2022/12/22 10:05:07;;;;;;;8.18;5.80;;;13.20;82.70;;;;;;21162581;28;20463;-58
2022/12/22 10:15:11;;;;;;;7.47;4.18;;;13.10;82.70;;;;;;21163082;27;20048;-57
2022/12/22 10:25:58;;;;;;;6.57;4.07;;;13.30;82.10;;;;;;21161910;28;20047;-58
2022/12/22 10:36:00;;;;;;;8.27;3.30;;;13.50;81.40;;;;;;20985480;28;20051;-58
2022/12/22 10:46:03;;;;;;;5.15;3.30;;;13.60;81.30;;;;;;20983441;28;20474;-57
2022/12/22 10:56:07;;;;;;;6.57;4.20;;;13.70;80.90;;;;;;20983870;28;20048;-57
2022/12/22 11:06:12;;;;;;;11.25;5.35;;;13.80;80.80;;;;;;21035009;28;20200;-57
2022/12/22 11:16:19;;;;;;;12.40;3.67;;;14.00;80.50;;;;;;21160689;28;20048;-58
2022/12/22 11:26:30;;;;;;;4.68;2.35;;;14.20;79.10;;;;;;21163392;28;20152;-59
2022/12/22 11:36:38;;;;;;;5.00;2.35;;;14.20;78.70;;;;;;21174146;28;20070;-57
2022/12/22 11:46:56;;;;;;;4.78;2.15;;;14.50;78.10;;;;;;21171551;28;20416;-58
2022/12/22 11:57:09;;;;;;;9.32;2.65;;;14.60;76.70;;;;;;21172241;28;20047;-58
2022/12/22 12:07:49;;;;;;;7.05;3.45;;;14.70;76.60;;;;;;21171318;28;20055;-57
2022/12/22 12:18:10;;;;;;;4.22;2.05;;;15.00;75.70;;;;;;21171361;28;20048;-57
2022/12/22 12:28:20;;;;;;;8.27;3.22;;;15.10;74.40;;;;;;21170801;28;20059;-59
2022/12/22 12:38:46;;;;;;;4.97;2.17;;;15.20;73.70;;;;;;21169135;28;20048;-58
2022/12/22 12:48:48;;;;;;;3.42;1.52;;;15.20;73.10;;;;;;21168267;28;20054;-57
2022/12/22 12:58:51;;;;;;;9.23;2.20;;;15.40;72.40;;;;;;21167510;28;20192;-58
2022/12/22 13:09:22;;;;;;;8.37;2.27;;;15.40;72.40;;;;;;21167556;28;20100;-58
2022/12/22 13:19:25;;;;;;;3.33;1.73;;;15.60;72.50;;;;;;21162035;28;20094;-57
2022/12/22 13:29:45;;;;;;;5.82;1.98;;;15.60;72.30;;;;;;21165979;28;20056;-57
2022/12/22 13:40:09;;;;;;;6.75;1.98;;;15.60;72.80;;;;;;21164977;28;20118;-57
2022/12/22 13:50:23;;;;;;;4.88;2.78;;;15.70;72.10;;;;;;21163378;28;20109;-57
2022/12/22 14:00:28;;;;;;;7.70;3.70;;;15.70;72.40;;;;;;21179151;27;20062;-59
2022/12/22 14:10:43;;;;;;;7.82;3.10;;;15.70;72.60;;;;;;21247977;27;20074;-58
2022/12/22 14:20:47;;;;;;;3.95;2.00;;;15.70;72.20;;;;;;21246941;28;20047;-57
2022/12/22 14:30:57;;;;;;;3.43;1.67;;;15.60;72.30;;;;;;21247169;28;20138;-57
2022/12/22 14:41:07;;;;;;;3.65;1.83;;;15.50;72.80;;;;;;21227819;28;20513;-57
2022/12/22 14:51:09;;;;;;;4.80;2.20;;;15.50;73.10;;;;;;21245494;28;20055;-66
2022/12/22 15:01:25;;;;;;;3.20;2.00;;;15.40;73.50;;;;;;21249231;27;20059;-57
2022/12/22 15:11:28;;;;;;;;;;;15.50;73.30;;;;;;21261766;27;20047;-59
2022/12/22 15:21:32;;;;;;;3.30;1.80;;;15.30;73.30;;;;;;21260750;27;19919;-58
2022/12/22 15:31:35;;;;;;;4.00;1.53;;;15.30;73.40;;;;;;21345587;27;20471;-58
2022/12/22 15:41:37;;;;;;;3.28;1.20;;;15.40;73.30;;;;;;21343284;27;20046;-58
2022/12/22 15:51:40;;;;;;;2.30;1.20;;;15.40;73.30;;;;;;21343354;27;20038;-59
2022/12/22 16:01:42;;;;;;;2.63;1.10;;;15.40;74.10;;;;;;21342716;27;20498;-57
2022/12/22 16:11:46;;;;;;;2.33;1.20;;;15.30;74.30;;;;;;21341711;27;20051;-60
2022/12/22 16:21:52;;;;;;;3.80;2.05;;;15.30;75.20;;;;;;21341592;27;20061;-56
2022/12/22 16:32:15;;;;;;;4.82;1.80;;;15.20;75.70;;;;;;21340875;27;20046;-60
2022/12/22 16:42:18;;;;;;;2.47;1.52;;;15.20;76.00;;;;;;21338988;27;20063;-56
2022/12/22 16:52:29;;;;;;;2.83;1.88;;;15.00;76.40;;;;;;21338540;27;20046;-57
2022/12/22 17:02:33;;;;;;;2.53;1.20;;;15.00;76.70;;;;;;21336929;27;20086;-58
2022/12/22 17:12:35;;;;;;;4.97;1.63;;;14.90;76.90;;;;;;21336972;27;20079;-57
2022/12/22 17:22:39;;;;;;;2.30;1.33;;;14.80;77.20;;;;;;21334349;27;20092;-56
2022/12/22 17:32:41;;;;;;;4.33;1.63;;;14.80;77.20;;;;;;21335487;27;20052;-58
2022/12/22 17:42:43;;;;;;;4.22;1.67;;;14.70;77.70;;;;;;21333978;27;20385;-57
2022/12/22 17:52:46;;;;;;;2.47;1.50;;;14.70;77.90;;;;;;21334332;27;20127;-60
2022/12/22 18:02:48;;;;;;;3.42;2.35;;;14.60;78.40;;;;;;21331992;27;20134;-60
2022/12/22 18:12:55;;;;;;;4.15;2.30;;;14.50;78.80;;;;;;21332869;27;20069;-58
2022/12/22 18:22:59;;;;;;;7.45;2.75;;;14.40;79.20;;;;;;21333064;27;20047;-56
2022/12/22 18:33:01;;;;;;;5.70;3.13;;;14.30;79.90;;;;;;21334363;27;20090;-58
2022/12/22 18:43:10;;;;;;;4.93;2.60;;;14.30;80.10;;;;;;21349568;27;20046;-56
2022/12/22 18:53:25;;;;;;;5.30;2.42;;;14.30;80.20;;;;;;21349118;27;20518;-57
2022/12/22 19:03:28;;;;;;;6.00;2.93;;;14.20;80.60;;;;;;21348196;27;20054;-59
2022/12/22 19:13:34;;;;;;;6.63;2.70;;;14.10;81.10;;;;;;21347068;27;20055;-60
2022/12/22 19:23:36;;;;;;;3.60;2.50;;;13.90;82.00;;;;;;21346062;27;20046;-58
2022/12/22 19:33:41;;;;;;;4.93;3.10;;;13.80;82.40;;;;;;21345804;27;20406;-61
2022/12/22 19:43:42;;;;;;;5.40;2.93;;;13.60;83.30;;;;;;21344659;27;20059;-64
2022/12/22 19:53:44;;;;;;;7.57;4.55;;;13.60;83.40;;;;;;21342880;27;20292;-57
2022/12/22 20:03:46;;;;;;;6.15;3.70;;;13.70;83.20;;;;;;21343291;27;20077;-58
2022/12/22 20:13:48;;;;;;;6.88;4.85;;;13.70;83.00;;;;;;21343247;27;20043;-57
2022/12/22 20:23:52;;;;;;;8.70;6.05;;;13.70;83.20;;;;;;21341244;27;20046;-56
2022/12/22 20:33:54;;;;;;;8.07;4.85;;;13.70;83.10;;;;;;21340244;27;20039;-58
2022/12/22 20:43:55;;;;;;;8.00;5.22;;;13.70;83.20;;;;;;21339384;27;20054;-58
2022/12/22 20:53:58;;;;;;;8.10;6.00;;;13.70;83.00;;;;;;21339371;27;20116;-58
2022/12/22 21:03:59;;;;;;;9.05;6.70;;;13.70;83.10;;;;;;21337801;27;20080;-58
2022/12/22 21:14:01;;;;;;;11.82;8.15;;;13.70;83.20;;;;;;21337767;27;20409;-57
2022/12/22 21:24:04;;;;;;;16.88;11.07;;;13.70;83.20;;;;;;21336505;27;20082;-57
2022/12/22 21:34:09;;;;;;;13.13;10.18;;;13.60;83.50;;;;;;21336421;27;20042;-59
2022/12/22 21:44:12;;;;;;;12.33;9.40;;;13.60;83.50;;;;;;21334895;27;20399;-57
2022/12/22 21:54:14;;;;;;;13.23;9.82;;;13.60;83.40;;;;;;21333948;27;20043;-58
2022/12/22 22:04:16;;;;;;;15.25;10.20;;;13.50;83.80;;;;;;21333744;27;20089;-57
2022/12/22 22:14:18;;;;;;;11.35;8.65;;;13.50;83.90;;;;;;21333079;27;20054;-60
2022/12/22 22:24:23;;;;;;;14.43;9.10;;;13.60;83.60;;;;;;21332374;27;20086;-58
2022/12/22 22:34:25;;;;;;;12.07;7.83;;;13.60;83.70;;;;;;21314070;27;20463;-58
2022/12/22 22:44:28;;;;;;;7.53;5.20;;;13.30;84.10;;;;;;21333598;27;20042;-61
2022/12/22 22:54:31;;;;;;;9.05;6.05;;;13.30;84.40;;;;;;21331979;27;20049;-61
2022/12/22 23:04:35;;;;;;;8.48;5.78;;;13.30;84.30;;;;;;21331482;27;20051;-57
2022/12/22 23:14:38;;;;;;;8.23;6.03;;;13.20;84.30;;;;;;21331284;27;20050;-64
2022/12/22 23:24:43;;;;;;;9.27;5.32;;;13.40;84.10;;;;;;21339807;27;20187;-61
2022/12/22 23:34:46;;;;;;;11.00;6.38;;;13.40;83.90;;;;;;21346105;27;20492;-57
2022/12/22 23:44:49;;;;;;;9.83;6.37;;;13.30;83.90;;;;;;21344651;27;20090;-58
2022/12/22 23:54:51;;;;;;;8.43;5.95;;;13.40;83.90;;;;;;21344329;27;20100;-58
